Jimmy P Lafont — WYT9490 — position and weather

sailwx.info

Track history (hours):
 
Tides and Currents Weather Stations Pressure Air Temp Water Temp Dewpoint Dewpoint Depression Visibility Wind Speed Wind Dir Waves Ship Positions

Jimmy P Lafont

Owner: CALLAIS & SONS INC, CUTOFF, LA. More information available from US FCC via Universal Licensing System and Coast Guard Vessel Documentation Center.

Last reported at 2017-Oct-13 08:37 UTC. Time now 2017-Oct-17 11:19 UTC.
Position N 29°60' W 093°55'.

; draft 2.7 m.

Type: . MMSI: 367005230.

Date/timePositionNaut miles runAvg speedWind from/ knotsBaromVisibWave heightAir tempDewpointWater temp
2017-Oct-13 08:37N 29°60' W 093°55'0 0.0
2017-Oct-13 08:30N 29°60' W 093°55'0 0.0
2017-Oct-13 08:00N 29°60' W 093°55'58 1.8
2017-Oct-11 22:57N 29°32' W 094°54'3 7.8
2017-Oct-11 22:30N 29°35' W 094°56'4 7.8
2017-Oct-11 22:01N 29°39' W 094°58'4 7.8
2017-Oct-11 21:26N 29°42' W 095°01'6 0.2
2017-Oct-10 13:23N 29°44' W 095°08'0 0.0
2017-Oct-10 11:23N 29°44' W 095°08'0 0.0
2017-Oct-10 10:56N 29°44' W 095°08'0 0.0
2017-Oct-10 10:29N 29°44' W 095°08'2 0.2
2017-Oct-09 21:59N 29°45' W 095°06'0 0.0
2017-Oct-08 14:06N 29°46' W 095°05'2 6.1
2017-Oct-08 13:50N 29°44' W 095°07'2 5.9
2017-Oct-08 13:29N 29°44' W 095°09'3 5.5
2017-Oct-08 13:00N 29°44' W 095°12'2 2.8
2017-Oct-08 12:14N 29°43' W 095°14'0 0.0
2017-Oct-08 11:59N 29°43' W 095°14'0 0.0
2017-Oct-08 10:59N 29°43' W 095°14'0 0.0
2017-Oct-08 10:29N 29°43' W 095°14'0 0.0
2017-Oct-08 09:47N 29°43' W 095°14'0 0.0
2017-Oct-08 09:23N 29°43' W 095°14'0 0.0
2017-Oct-08 08:59N 29°43' W 095°14'0 0.0
2017-Oct-08 08:23N 29°43' W 095°14'0 0.0
2017-Oct-08 07:56N 29°43' W 095°14'1 0.7
2017-Oct-08 07:05N 29°44' W 095°14'0 0.9
2017-Oct-08 06:53N 29°43' W 095°14'1 2.2
2017-Oct-08 06:30N 29°43' W 095°13'3 5.6
2017-Oct-08 05:59N 29°45' W 095°10'4 5.2
2017-Oct-08 05:13N 29°45' W 095°06'1 0.3
2017-Oct-08 02:41N 29°46' W 095°06'1 0.1
2017-Oct-07 14:05N 29°46' W 095°05'1 4.3
2017-Oct-07 13:46N 29°45' W 095°04'3 4.3
2017-Oct-07 13:05N 29°43' W 095°01'0 4.5
2017-Oct-07 12:59N 29°43' W 095°01'2 4.5
2017-Oct-07 12:30N 29°41' W 094°59'3 4.9
2017-Oct-07 11:55N 29°39' W 094°58'2 4.3
2017-Oct-07 11:29N 29°37' W 094°58'2 3.8
2017-Oct-07 11:00N 29°37' W 094°60'1 2.5
2017-Oct-07 10:27N 29°37' W 095°01'0 0.1
2017-Oct-07 10:00N 29°37' W 095°02'0 0.0
2017-Oct-07 09:30N 29°37' W 095°02'0 0.0
2017-Oct-07 09:00N 29°37' W 095°02'0 0.0
2017-Oct-07 08:30N 29°37' W 095°02'0 0.0
2017-Oct-07 07:57N 29°37' W 095°02'0 0.0
2017-Oct-07 07:30N 29°37' W 095°02'0 0.0
2017-Oct-07 07:00N 29°37' W 095°02'0 0.0
2017-Oct-07 06:30N 29°37' W 095°02'0 0.0
2017-Oct-07 06:00N 29°37' W 095°02'0 0.0
2017-Oct-07 05:30N 29°37' W 095°02'0 0.0
2017-Oct-07 05:00N 29°37' W 095°02'0 0.0
2017-Oct-07 04:30N 29°37' W 095°02'0 0.0
2017-Oct-07 04:00N 29°37' W 095°02'0 0.0
2017-Oct-07 03:30N 29°37' W 095°02'0 0.0
2017-Oct-07 03:00N 29°37' W 095°02'0 0.0
2017-Oct-07 02:30N 29°37' W 095°02'0 0.0
2017-Oct-07 02:00N 29°37' W 095°02'0 0.0
2017-Oct-07 01:30N 29°37' W 095°02'0 0.0
2017-Oct-07 01:00N 29°37' W 095°02'0 0.0
2017-Oct-07 00:24N 29°37' W 095°02'0 0.1
2017-Oct-07 00:00N 29°37' W 095°01'0 0.0
2017-Oct-06 23:27N 29°37' W 095°01'0 0.0
2017-Oct-06 23:00N 29°37' W 095°01'0 0.0
2017-Oct-06 22:30N 29°37' W 095°01'0 0.0
2017-Oct-06 22:00N 29°37' W 095°01'0 0.0
2017-Oct-06 21:30N 29°37' W 095°01'0 0.0
2017-Oct-06 20:11N 29°37' W 095°01'0 0.1
2017-Oct-06 19:59N 29°37' W 095°01'2 5.0
2017-Oct-06 19:31N 29°37' W 094°59'2 4.6
2017-Oct-06 19:00N 29°39' W 094°58'4 7.1
2017-Oct-06 18:29N 29°42' W 095°01'5 0.7
2017-Oct-06 10:53N 29°45' W 095°06'3 0.5
2017-Oct-06 05:26N 29°44' W 095°03'1 1.7
2017-Oct-06 04:56N 29°44' W 095°02'2 4.1
2017-Oct-06 04:30N 29°42' W 095°01'2 4.8
2017-Oct-06 03:59N 29°41' W 094°59'3 5.7
2017-Oct-06 03:30N 29°38' W 094°58'3 5.9
2017-Oct-06 03:00N 29°35' W 094°56'3 6.0
2017-Oct-06 02:30N 29°33' W 094°54'69 4.0
2017-Oct-05 09:18N 30°03' W 093°43'8 4.3
2017-Oct-05 07:20N 30°04' W 093°33'2 5.2
2017-Oct-05 07:00N 30°04' W 093°31'3 5.2
2017-Oct-05 06:30N 30°04' W 093°28'3 5.2
2017-Oct-05 06:00N 30°04' W 093°25'2 5.0
2017-Oct-05 05:30N 30°04' W 093°22'1 0.6
2017-Oct-05 04:20N 30°04' W 093°21'1 0.3
2017-Oct-05 02:00N 30°04' W 093°22'0 0.0
2017-Oct-04 11:17N 30°04' W 093°22'1 3.1
2017-Oct-04 11:00N 30°04' W 093°21'3 5.1
2017-Oct-04 10:30N 30°06' W 093°20'2 0.2
2017-Oct-04 02:38N 30°08' W 093°19'0 0.3
2017-Oct-04 02:26N 30°08' W 093°19'2 4.9
2017-Oct-04 02:00N 30°06' W 093°20'3 5.4
2017-Oct-04 01:28N 30°04' W 093°21'0 0.7
2017-Oct-04 00:50N 30°04' W 093°22'2 4.8
2017-Oct-04 00:30N 30°04' W 093°20'2 3.6
2017-Oct-04 00:00N 30°06' W 093°20'3 5.3
2017-Oct-03 23:30N 30°09' W 093°20'2 4.7
2017-Oct-03 23:00N 30°11' W 093°19'3 5.0
2017-Oct-03 22:30N 30°12' W 093°16'1 3.0
2017-Oct-03 22:00N 30°14' W 093°16'0 0.6
2017-Oct-03 21:30N 30°14' W 093°15'0 0.1
2017-Oct-03 20:30N 30°14' W 093°15'1 2.7
2017-Oct-03 19:58N 30°12' W 093°16'1 3.0
2017-Oct-03 19:30N 30°12' W 093°17'1 1.5
2017-Oct-03 19:00N 30°11' W 093°18'2 3.8
2017-Oct-03 18:29N 30°10' W 093°19'2 4.1
2017-Oct-03 18:00N 30°08' W 093°20'2 4.4
2017-Oct-03 17:29N 30°06' W 093°20'2 4.2
2017-Oct-03 17:00N 30°04' W 093°21'1 1.7
2017-Oct-03 16:24N 30°04' W 093°22'1 0.4
2017-Oct-03 14:58N 30°04' W 093°21'1 0.1
2017-Oct-03 09:28N 30°04' W 093°22'0 0.0
2017-Oct-03 08:58N 30°04' W 093°22'  
Track history (hours):
 
Tides and Currents Weather Stations Pressure Air Temp Water Temp Dewpoint Dewpoint Depression Visibility Wind Speed Wind Dir Waves Ship Positions

Jimmy P Lafont

Owner: CALLAIS & SONS INC, CUTOFF, LA. More information available from US FCC via Universal Licensing System and Coast Guard Vessel Documentation Center.

Last reported at 2017-Oct-13 08:37 UTC. Time now 2017-Oct-17 11:19 UTC.
Position N 29°60' W 093°55'.

; draft 2.7 m.

Type: . MMSI: 367005230.

Date/timePositionNaut miles runAvg speedWind from/ knotsBaromVisibWave heightAir tempDewpointWater temp
2017-Oct-13 08:37N 29°60' W 093°55'0 0.0
2017-Oct-13 08:30N 29°60' W 093°55'0 0.0
2017-Oct-13 08:00N 29°60' W 093°55'58 1.8
2017-Oct-11 22:57N 29°32' W 094°54'3 7.8
2017-Oct-11 22:30N 29°35' W 094°56'4 7.8
2017-Oct-11 22:01N 29°39' W 094°58'4 7.8
2017-Oct-11 21:26N 29°42' W 095°01'6 0.2
2017-Oct-10 13:23N 29°44' W 095°08'0 0.0
2017-Oct-10 11:23N 29°44' W 095°08'0 0.0
2017-Oct-10 10:56N 29°44' W 095°08'0 0.0
2017-Oct-10 10:29N 29°44' W 095°08'2 0.2
2017-Oct-09 21:59N 29°45' W 095°06'0 0.0
2017-Oct-08 14:06N 29°46' W 095°05'2 6.1
2017-Oct-08 13:50N 29°44' W 095°07'2 5.9
2017-Oct-08 13:29N 29°44' W 095°09'3 5.5
2017-Oct-08 13:00N 29°44' W 095°12'2 2.8
2017-Oct-08 12:14N 29°43' W 095°14'0 0.0
2017-Oct-08 11:59N 29°43' W 095°14'0 0.0
2017-Oct-08 10:59N 29°43' W 095°14'0 0.0
2017-Oct-08 10:29N 29°43' W 095°14'0 0.0
2017-Oct-08 09:47N 29°43' W 095°14'0 0.0
2017-Oct-08 09:23N 29°43' W 095°14'0 0.0
2017-Oct-08 08:59N 29°43' W 095°14'0 0.0
2017-Oct-08 08:23N 29°43' W 095°14'0 0.0
2017-Oct-08 07:56N 29°43' W 095°14'1 0.7
2017-Oct-08 07:05N 29°44' W 095°14'0 0.9
2017-Oct-08 06:53N 29°43' W 095°14'1 2.2
2017-Oct-08 06:30N 29°43' W 095°13'3 5.6
2017-Oct-08 05:59N 29°45' W 095°10'4 5.2
2017-Oct-08 05:13N 29°45' W 095°06'1 0.3
2017-Oct-08 02:41N 29°46' W 095°06'1 0.1
2017-Oct-07 14:05N 29°46' W 095°05'1 4.3
2017-Oct-07 13:46N 29°45' W 095°04'3 4.3
2017-Oct-07 13:05N 29°43' W 095°01'0 4.5
2017-Oct-07 12:59N 29°43' W 095°01'2 4.5
2017-Oct-07 12:30N 29°41' W 094°59'3 4.9
2017-Oct-07 11:55N 29°39' W 094°58'2 4.3
2017-Oct-07 11:29N 29°37' W 094°58'2 3.8
2017-Oct-07 11:00N 29°37' W 094°60'1 2.5
2017-Oct-07 10:27N 29°37' W 095°01'0 0.1
2017-Oct-07 10:00N 29°37' W 095°02'0 0.0
2017-Oct-07 09:30N 29°37' W 095°02'0 0.0
2017-Oct-07 09:00N 29°37' W 095°02'0 0.0
2017-Oct-07 08:30N 29°37' W 095°02'0 0.0
2017-Oct-07 07:57N 29°37' W 095°02'0 0.0
2017-Oct-07 07:30N 29°37' W 095°02'0 0.0
2017-Oct-07 07:00N 29°37' W 095°02'0 0.0
2017-Oct-07 06:30N 29°37' W 095°02'0 0.0
2017-Oct-07 06:00N 29°37' W 095°02'0 0.0
2017-Oct-07 05:30N 29°37' W 095°02'0 0.0
2017-Oct-07 05:00N 29°37' W 095°02'0 0.0
2017-Oct-07 04:30N 29°37' W 095°02'0 0.0
2017-Oct-07 04:00N 29°37' W 095°02'0 0.0
2017-Oct-07 03:30N 29°37' W 095°02'0 0.0
2017-Oct-07 03:00N 29°37' W 095°02'0 0.0
2017-Oct-07 02:30N 29°37' W 095°02'0 0.0
2017-Oct-07 02:00N 29°37' W 095°02'0 0.0
2017-Oct-07 01:30N 29°37' W 095°02'0 0.0
2017-Oct-07 01:00N 29°37' W 095°02'0 0.0
2017-Oct-07 00:24N 29°37' W 095°02'0 0.1
2017-Oct-07 00:00N 29°37' W 095°01'0 0.0
2017-Oct-06 23:27N 29°37' W 095°01'0 0.0
2017-Oct-06 23:00N 29°37' W 095°01'0 0.0
2017-Oct-06 22:30N 29°37' W 095°01'0 0.0
2017-Oct-06 22:00N 29°37' W 095°01'0 0.0
2017-Oct-06 21:30N 29°37' W 095°01'0 0.0
2017-Oct-06 20:11N 29°37' W 095°01'0 0.1
2017-Oct-06 19:59N 29°37' W 095°01'2 5.0
2017-Oct-06 19:31N 29°37' W 094°59'2 4.6
2017-Oct-06 19:00N 29°39' W 094°58'4 7.1
2017-Oct-06 18:29N 29°42' W 095°01'5 0.7
2017-Oct-06 10:53N 29°45' W 095°06'3 0.5
2017-Oct-06 05:26N 29°44' W 095°03'1 1.7
2017-Oct-06 04:56N 29°44' W 095°02'2 4.1
2017-Oct-06 04:30N 29°42' W 095°01'2 4.8
2017-Oct-06 03:59N 29°41' W 094°59'3 5.7
2017-Oct-06 03:30N 29°38' W 094°58'3 5.9
2017-Oct-06 03:00N 29°35' W 094°56'3 6.0
2017-Oct-06 02:30N 29°33' W 094°54'69 4.0
2017-Oct-05 09:18N 30°03' W 093°43'8 4.3
2017-Oct-05 07:20N 30°04' W 093°33'2 5.2
2017-Oct-05 07:00N 30°04' W 093°31'3 5.2
2017-Oct-05 06:30N 30°04' W 093°28'3 5.2
2017-Oct-05 06:00N 30°04' W 093°25'2 5.0
2017-Oct-05 05:30N 30°04' W 093°22'1 0.6
2017-Oct-05 04:20N 30°04' W 093°21'1 0.3
2017-Oct-05 02:00N 30°04' W 093°22'0 0.0
2017-Oct-04 11:17N 30°04' W 093°22'1 3.1
2017-Oct-04 11:00N 30°04' W 093°21'3 5.1
2017-Oct-04 10:30N 30°06' W 093°20'2 0.2
2017-Oct-04 02:38N 30°08' W 093°19'0 0.3
2017-Oct-04 02:26N 30°08' W 093°19'2 4.9
2017-Oct-04 02:00N 30°06' W 093°20'3 5.4
2017-Oct-04 01:28N 30°04' W 093°21'0 0.7
2017-Oct-04 00:50N 30°04' W 093°22'2 4.8
2017-Oct-04 00:30N 30°04' W 093°20'2 3.6
2017-Oct-04 00:00N 30°06' W 093°20'3 5.3
2017-Oct-03 23:30N 30°09' W 093°20'2 4.7
2017-Oct-03 23:00N 30°11' W 093°19'3 5.0
2017-Oct-03 22:30N 30°12' W 093°16'1 3.0
2017-Oct-03 22:00N 30°14' W 093°16'0 0.6
2017-Oct-03 21:30N 30°14' W 093°15'0 0.1
2017-Oct-03 20:30N 30°14' W 093°15'1 2.7
2017-Oct-03 19:58N 30°12' W 093°16'1 3.0
2017-Oct-03 19:30N 30°12' W 093°17'1 1.5
2017-Oct-03 19:00N 30°11' W 093°18'2 3.8
2017-Oct-03 18:29N 30°10' W 093°19'2 4.1
2017-Oct-03 18:00N 30°08' W 093°20'2 4.4
2017-Oct-03 17:29N 30°06' W 093°20'2 4.2
2017-Oct-03 17:00N 30°04' W 093°21'1 1.7
2017-Oct-03 16:24N 30°04' W 093°22'1 0.4
2017-Oct-03 14:58N 30°04' W 093°21'1 0.1
2017-Oct-03 09:28N 30°04' W 093°22'0 0.0
2017-Oct-03 08:58N 30°04' W 093°22'  

Dump ship's entire track history